Wetterstation Valentinhaft
Wetterdaten: aktuell Sonntag, 05.04.2020 09:30
Datum Zeit Temp. A. Wasser Feuchte A. Luftdruck Regen Wind Richtung Richtung Sonnenschein Solar Taupunkt Windchill Windböen
05.04.2020 09:30 8,8 °C 10,0 °C 61 % 1023,9 hPa 0,0 mm 18,9 km/h O 92 ° 10 min 429 W/m² 1,7 °C 6,0 °C 46,0 km/h
05.04.2020 09:20 8,3 °C 10,0 °C 63 % 1024,0 hPa 0,0 mm 15,1 km/h O 91 ° 10 min 400 W/m² 1,7 °C 5,8 °C 36,8 km/h
05.04.2020 09:10 7,5 °C 10,0 °C 67 % 1024,0 hPa 0,0 mm 18,1 km/h N 360 ° 10 min 371 W/m² 1,8 °C 4,4 °C 39,1 km/h
05.04.2020 09:00 6,4 °C 10,0 °C 71 % 1024,1 hPa 0,0 mm 14,3 km/h N 360 ° 0 min 147 W/m² 1,5 °C 3,6 °C 32,2 km/h
05.04.2020 08:50 5,6 °C 10,0 °C 74 % 1024,0 hPa 0,0 mm 9,5 km/h N 360 ° 0 min 142 W/m² 1,3 °C 3,5 °C 27,6 km/h
05.04.2020 08:40 4,9 °C 10,0 °C 76 % 1024,0 hPa 0,0 mm 8,1 km/h N 360 ° 0 min 89 W/m² 1,0 °C 3,0 °C 18,4 km/h
05.04.2020 08:30 4,4 °C 9,4 °C 78 % 1024,0 hPa 0,0 mm 7,9 km/h O 91 ° 0 min 47 W/m² 0,9 °C 2,5 °C 23,0 km/h
05.04.2020 08:20 4,0 °C 9,4 °C 80 % 1023,9 hPa 0,0 mm 7,7 km/h O 101 ° 0 min 40 W/m² 0,9 °C 2,0 °C 20,7 km/h
05.04.2020 08:10 3,6 °C 9,4 °C 82 % 1023,8 hPa 0,0 mm 7,6 km/h S-SO 147 ° 0 min 38 W/m² 0,8 °C 1,6 °C 20,7 km/h
05.04.2020 08:00 3,2 °C 9,4 °C 83 % 1023,8 hPa 0,0 mm 8,0 km/h O 90 ° 0 min 35 W/m² 0,6 °C 1,0 °C 20,7 km/h
05.04.2020 07:50 2,9 °C 9,4 °C 84 % 1023,7 hPa 0,0 mm 8,9 km/h SO 129 ° 0 min 32 W/m² 0,5 °C 0,4 °C 29,9 km/h
05.04.2020 07:40 2,7 °C 9,4 °C 84 % 1023,7 hPa 0,0 mm 7,0 km/h N 360 ° 0 min 29 W/m² 0,3 °C 0,7 °C 27,6 km/h
05.04.2020 07:30 2,5 °C 9,4 °C 84 % 1023,8 hPa 0,0 mm 7,4 km/h N 360 ° 0 min 25 W/m² 0,1 °C 0,4 °C 18,4 km/h
05.04.2020 07:20 2,4 °C 6,1 °C 84 % 1023,7 hPa 0,0 mm 7,6 km/h N 360 ° 0 min 21 W/m² -0,0 °C 0,2 °C 23,0 km/h
05.04.2020 07:10 2,4 °C 6,1 °C 84 % 1023,7 hPa 0,0 mm 8,2 km/h N 360 ° 0 min 17 W/m² -0,0 °C 0,0 °C 25,3 km/h
05.04.2020 07:00 2,4 °C 6,1 °C 83 % 1023,6 hPa 0,0 mm 8,2 km/h S-SO 149 ° 0 min 12 W/m² -0,2 °C 0,0 °C 25,3 km/h
05.04.2020 06:50 2,5 °C 6,1 °C 83 % 1023,6 hPa 0,0 mm 8,2 km/h N 360 ° 0 min 7 W/m² -0,1 °C 0,1 °C 25,3 km/h
05.04.2020 06:40 2,6 °C 6,1 °C 83 % 1023,5 hPa 0,0 mm 7,3 km/h N 360 ° 0 min 1 W/m² 0,0 °C 0,5 °C 25,3 km/h
05.04.2020 06:30 2,7 °C 6,1 °C 83 % 1023,4 hPa 0,0 mm 9,4 km/h SO 133 ° 0 min 0 W/m² 0,1 °C 0,1 °C 27,6 km/h
05.04.2020 06:20 2,8 °C 6,1 °C 82 % 1023,3 hPa 0,0 mm 9,2 km/h N 360 ° 0 min 0 W/m² 0,0 °C 0,2 °C 29,9 km/h
05.04.2020 06:10 2,9 °C 6,1 °C 82 % 1023,3 hPa 0,0 mm 12,3 km/h N 360 ° 0 min 0 W/m² 0,1 °C -0,3 °C 27,6 km/h
05.04.2020 06:00 3,1 °C 6,1 °C 81 % 1023,3 hPa 0,0 mm 12,3 km/h S 183 ° 0 min 0 W/m² 0,2 °C -0,1 °C 32,2 km/h
05.04.2020 05:50 3,2 °C 6,1 °C 80 % 1023,3 hPa 0,0 mm 10,2 km/h O-SO 103 ° 0 min 0 W/m² 0,1 °C 0,5 °C 34,5 km/h
05.04.2020 05:40 3,4 °C 6,7 °C 79 % 1023,3 hPa 0,0 mm 11,2 km/h O-SO 113 ° 0 min 0 W/m² 0,1 °C 0,5 °C 27,6 km/h
05.04.2020 05:30 3,6 °C 6,7 °C 79 % 1023,4 hPa 0,0 mm 8,4 km/h O 89 ° 0 min 0 W/m² 0,3 °C 1,4 °C 27,6 km/h
05.04.2020 05:20 3,7 °C 6,7 °C 79 % 1023,4 hPa 0,0 mm 10,9 km/h SO 136 ° 0 min 0 W/m² 0,4 °C 0,9 °C 25,3 km/h
05.04.2020 05:10 3,7 °C 6,7 °C 79 % 1023,3 hPa 0,0 mm 10,6 km/h N 360 ° 0 min 0 W/m² 0,4 °C 1,0 °C 25,3 km/h
05.04.2020 05:00 3,7 °C 6,7 °C 79 % 1023,4 hPa 0,0 mm 12,1 km/h S-SO 150 ° 0 min 0 W/m² 0,4 °C 0,7 °C 27,6 km/h
05.04.2020 04:50 3,7 °C 6,7 °C 79 % 1023,4 hPa 0,0 mm 10,8 km/h N 360 ° 0 min 0 W/m² 0,4 °C 0,9 °C 25,3 km/h
05.04.2020 04:40 3,7 °C 6,7 °C 78 % 1023,6 hPa 0,0 mm 6,0 km/h N 360 ° 0 min 0 W/m² 0,2 °C 2,2 °C 20,7 km/h
05.04.2020 04:30 3,9 °C 6,7 °C 78 % 1023,6 hPa 0,0 mm 6,6 km/h N 360 ° 0 min 0 W/m² 0,4 °C 2,3 °C 23,0 km/h
05.04.2020 04:20 3,9 °C 7,2 °C 77 % 1023,5 hPa 0,0 mm 7,1 km/h N 360 ° 0 min 0 W/m² 0,2 °C 2,1 °C 23,0 km/h
05.04.2020 04:10 3,9 °C 7,2 °C 77 % 1023,6 hPa 0,0 mm 6,7 km/h N 360 ° 0 min 0 W/m² 0,2 °C 2,2 °C 25,3 km/h
05.04.2020 04:00 4,0 °C 7,2 °C 77 % 1023,6 hPa 0,0 mm 10,2 km/h N 360 ° 0 min 0 W/m² 0,3 °C 1,4 °C 29,9 km/h
05.04.2020 03:50 4,2 °C 7,2 °C 76 % 1023,6 hPa 0,0 mm 11,2 km/h O-SO 123 ° 0 min 0 W/m² 0,4 °C 1,4 °C 23,0 km/h
05.04.2020 03:40 4,4 °C 7,2 °C 75 % 1023,6 hPa 0,0 mm 9,0 km/h O 86 ° 0 min 0 W/m² 0,4 °C 2,2 °C 25,3 km/h
05.04.2020 03:30 4,7 °C 7,2 °C 73 % 1023,6 hPa 0,0 mm 9,9 km/h O 81 ° 0 min 0 W/m² 0,3 °C 2,3 °C 27,6 km/h
05.04.2020 03:20 4,7 °C 7,2 °C 73 % 1023,7 hPa 0,0 mm 11,4 km/h SO 134 ° 0 min 0 W/m² 0,3 °C 2,0 °C 27,6 km/h
05.04.2020 03:10 4,7 °C 7,8 °C 73 % 1023,8 hPa 0,0 mm 10,6 km/h SO 140 ° 0 min 0 W/m² 0,3 °C 2,2 °C 27,6 km/h
05.04.2020 03:00 4,9 °C 7,8 °C 72 % 1023,8 hPa 0,0 mm 11,5 km/h O-NO 68 ° 0 min 0 W/m² 0,3 °C 2,2 °C 25,3 km/h
05.04.2020 02:50 5,1 °C 7,8 °C 71 % 1023,9 hPa 0,0 mm 9,9 km/h SO 128 ° 0 min 0 W/m² 0,3 °C 2,8 °C 27,6 km/h
05.04.2020 02:40 5,1 °C 7,8 °C 70 % 1023,9 hPa 0,0 mm 10,2 km/h SO 140 ° 0 min 0 W/m² 0,1 °C 2,7 °C 27,6 km/h
05.04.2020 02:30 5,2 °C 7,8 °C 70 % 1023,9 hPa 0,0 mm 9,5 km/h S 175 ° 0 min 0 W/m² 0,2 °C 3,0 °C 20,7 km/h
05.04.2020 02:20 5,3 °C 7,8 °C 69 % 1023,9 hPa 0,0 mm 7,0 km/h S-SO 152 ° 0 min 0 W/m² 0,1 °C 3,8 °C 20,7 km/h
05.04.2020 02:10 5,3 °C 8,3 °C 69 % 1024,0 hPa 0,0 mm 10,3 km/h O-SO 119 ° 0 min 0 W/m² 0,1 °C 3,0 °C 23,0 km/h
05.04.2020 02:00 5,4 °C 8,3 °C 69 % 1024,0 hPa 0,0 mm 8,9 km/h SO 142 ° 0 min 0 W/m² 0,2 °C 3,4 °C 23,0 km/h
05.04.2020 01:50 5,6 °C 8,3 °C 68 % 1024,1 hPa 0,0 mm 9,1 km/h S 190 ° 0 min 0 W/m² 0,2 °C 3,6 °C 23,0 km/h
05.04.2020 01:40 5,7 °C 8,3 °C 68 % 1024,1 hPa 0,0 mm 7,0 km/h S-SO 157 ° 0 min 0 W/m² 0,3 °C 4,2 °C 23,0 km/h
05.04.2020 01:30 5,3 °C 8,3 °C 70 % 1024,2 hPa 0,0 mm 7,6 km/h O-SO 107 ° 0 min 0 W/m² 0,3 °C 3,6 °C 16,1 km/h
05.04.2020 01:20 5,2 °C 8,3 °C 70 % 1024,2 hPa 0,0 mm 6,8 km/h O-SO 106 ° 0 min 0 W/m² 0,2 °C 3,7 °C 20,7 km/h
05.04.2020 01:10 5,4 °C 8,3 °C 70 % 1024,1 hPa 0,0 mm 6,4 km/h SO 144 ° 0 min 0 W/m² 0,4 °C 4,1 °C 16,1 km/h
05.04.2020 01:00 5,4 °C 8,3 °C 69 % 1024,0 hPa 0,0 mm 4,7 km/h SO 144 ° 0 min 0 W/m² 0,2 °C 4,7 °C 13,8 km/h
05.04.2020 00:50 5,5 °C 8,3 °C 69 % 1024,1 hPa 0,0 mm 4,5 km/h S-SO 159 ° 0 min 0 W/m² 0,3 °C 5,5 °C 18,4 km/h
05.04.2020 00:40 5,8 °C 8,9 °C 68 % 1024,0 hPa 0,0 mm 4,0 km/h O-SO 111 ° 0 min 0 W/m² 0,4 °C 5,8 °C 13,8 km/h
05.04.2020 00:30 6,2 °C 8,9 °C 66 % 1024,0 hPa 0,0 mm 5,2 km/h S-SO 154 ° 0 min 0 W/m² 0,3 °C 5,4 °C 16,1 km/h
05.04.2020 00:20 6,3 °C 8,9 °C 66 % 1023,9 hPa 0,0 mm 5,9 km/h N 360 ° 0 min 0 W/m² 0,4 °C 5,2 °C 23,0 km/h
05.04.2020 00:10 6,2 °C 8,9 °C 67 % 1023,9 hPa 0,0 mm 5,7 km/h N 360 ° 0 min 0 W/m² 0,5 °C 5,2 °C 13,8 km/h
05.04.2020 00:00 6,1 °C 8,9 °C 68 % 1023,8 hPa 0,0 mm 6,6 km/h N 360 ° 0 min 0 W/m² 0,6 °C 4,8 °C 23,0 km/h
04.04.2020 23:50 5,9 °C 8,9 °C 69 % 1023,8 hPa 0,0 mm 7,3 km/h N 360 ° 0 min 0 W/m² 0,7 °C 4,4 °C 20,7 km/h
04.04.2020 23:40 5,7 °C 8,9 °C 70 % 1023,7 hPa 0,0 mm 5,0 km/h N 360 ° 0 min 0 W/m² 0,7 °C 4,9 °C 18,4 km/h
04.04.2020 23:30 5,3 °C 8,9 °C 71 % 1023,8 hPa 0,0 mm 4,5 km/h N 360 ° 0 min 0 W/m² 0,5 °C 5,3 °C 13,8 km/h
04.04.2020 23:20 5,3 °C 8,9 °C 71 % 1023,8 hPa 0,0 mm 2,8 km/h N 360 ° 0 min 0 W/m² 0,5 °C 5,3 °C 9,2 km/h
04.04.2020 23:10 5,4 °C 9,4 °C 71 % 1023,8 hPa 0,0 mm 5,7 km/h N 360 ° 0 min 0 W/m² 0,6 °C 4,3 °C 23,0 km/h
04.04.2020 23:00 5,8 °C 9,4 °C 70 % 1023,7 hPa 0,0 mm 6,6 km/h N 360 ° 0 min 0 W/m² 0,8 °C 4,5 °C 18,4 km/h
04.04.2020 22:50 6,2 °C 9,4 °C 68 % 1023,8 hPa 0,0 mm 5,2 km/h N 360 ° 0 min 0 W/m² 0,7 °C 5,4 °C 11,5 km/h
04.04.2020 22:40 6,9 °C 10,0 °C 66 % 1023,6 hPa 0,0 mm 13,0 km/h N 360 ° 0 min 0 W/m² 1,0 °C 4,4 °C 27,6 km/h
04.04.2020 22:30 7,2 °C 10,0 °C 66 % 1023,6 hPa 0,0 mm 20,2 km/h N 360 ° 0 min 0 W/m² 1,3 °C 3,8 °C 29,9 km/h
04.04.2020 22:20 7,3 °C 10,6 °C 65 % 1023,5 hPa 0,0 mm 21,2 km/h N 360 ° 0 min 0 W/m² 1,2 °C 3,8 °C 32,2 km/h
04.04.2020 22:10 7,4 °C 10,6 °C 65 % 1023,5 hPa 0,0 mm 20,3 km/h N 360 ° 0 min 0 W/m² 1,3 °C 4,1 °C 29,9 km/h
04.04.2020 22:00 7,6 °C 10,6 °C 64 % 1023,6 hPa 0,0 mm 20,0 km/h N 360 ° 0 min 0 W/m² 1,2 °C 4,3 °C 29,9 km/h
04.04.2020 21:50 7,8 °C 10,6 °C 64 % 1023,5 hPa 0,0 mm 24,0 km/h N 360 ° 0 min 0 W/m² 1,4 °C 4,2 °C 32,2 km/h
04.04.2020 21:40 7,8 °C 11,1 °C 63 % 1023,5 hPa 0,0 mm 25,9 km/h N 360 ° 0 min 0 W/m² 1,2 °C 4,0 °C 36,8 km/h
04.04.2020 21:30 7,9 °C 11,1 °C 63 % 1023,4 hPa 0,0 mm 24,2 km/h N 360 ° 0 min 0 W/m² 1,3 °C 4,3 °C 32,2 km/h
04.04.2020 21:20 8,1 °C 11,1 °C 62 % 1023,4 hPa 0,0 mm 25,9 km/h N 360 ° 0 min 0 W/m² 1,3 °C 4,4 °C 39,1 km/h
04.04.2020 21:10 8,2 °C 11,7 °C 62 % 1023,2 hPa 0,0 mm 25,3 km/h N 360 ° 0 min 0 W/m² 1,4 °C 4,6 °C 32,2 km/h
04.04.2020 21:00 8,1 °C 11,7 °C 61 % 1023,1 hPa 0,0 mm 24,8 km/h N 360 ° 0 min 0 W/m² 1,0 °C 4,5 °C 34,5 km/h
04.04.2020 20:50 8,0 °C 11,7 °C 62 % 1023,0 hPa 0,0 mm 22,7 km/h N 360 ° 0 min 0 W/m² 1,2 °C 4,6 °C 32,2 km/h
04.04.2020 20:40 7,8 °C 12,2 °C 63 % 1022,8 hPa 0,0 mm 23,2 km/h N 360 ° 0 min 0 W/m² 1,2 °C 4,3 °C 29,9 km/h
04.04.2020 20:30 7,7 °C 12,2 °C 63 % 1022,7 hPa 0,0 mm 17,6 km/h N 360 ° 0 min 0 W/m² 1,1 °C 4,7 °C 25,3 km/h
04.04.2020 20:20 7,8 °C 12,8 °C 62 % 1022,6 hPa 0,0 mm 16,2 km/h N 360 ° 0 min 0 W/m² 1,0 °C 5,0 °C 23,0 km/h
04.04.2020 20:10 8,2 °C 13,3 °C 61 % 1022,6 hPa 0,0 mm 13,0 km/h N 360 ° 0 min 0 W/m² 1,1 °C 6,0 °C 23,0 km/h
04.04.2020 20:00 8,6 °C 13,9 °C 60 % 1022,5 hPa 0,0 mm 11,6 km/h N 360 ° 0 min 0 W/m² 1,3 °C 6,7 °C 18,4 km/h
04.04.2020 19:50 9,1 °C 14,4 °C 58 % 1022,3 hPa 0,0 mm 11,2 km/h N 360 ° 0 min 2 W/m² 1,3 °C 7,4 °C 20,7 km/h
04.04.2020 19:40 9,7 °C 15,0 °C 57 % 1022,2 hPa 0,0 mm 12,6 km/h N 360 ° 0 min 8 W/m² 1,6 °C 7,9 °C 23,0 km/h
04.04.2020 19:30 10,2 °C 16,1 °C 56 % 1022,2 hPa 0,0 mm 12,9 km/h N 360 ° 10 min 15 W/m² 1,8 °C 10,2 °C 23,0 km/h
04.04.2020 19:20 10,7 °C 17,2 °C 55 % 1022,0 hPa 0,0 mm 11,0 km/h N 360 ° 0 min 26 W/m² 2,0 °C 10,7 °C 18,4 km/h
04.04.2020 19:10 11,4 °C 17,8 °C 52 % 1021,9 hPa 0,0 mm 13,8 km/h O 88 ° 10 min 44 W/m² 1,9 °C 11,4 °C 23,0 km/h
04.04.2020 19:00 12,1 °C 18,9 °C 49 % 1021,8 hPa 0,0 mm 14,4 km/h N 360 ° 10 min 66 W/m² 1,7 °C 12,1 °C 29,9 km/h
04.04.2020 18:50 12,3 °C 20,0 °C 50 % 1021,8 hPa 0,0 mm 12,4 km/h N 360 ° 10 min 94 W/m² 2,2 °C 12,3 °C 23,0 km/h
04.04.2020 18:40 12,4 °C 21,1 °C 48 % 1021,7 hPa 0,0 mm 19,4 km/h N 360 ° 10 min 125 W/m² 1,7 °C 12,4 °C 27,6 km/h
04.04.2020 18:30 12,8 °C 22,2 °C 47 % 1021,7 hPa 0,0 mm 17,2 km/h N 360 ° 10 min 156 W/m² 1,8 °C 12,8 °C 29,9 km/h
04.04.2020 18:20 13,2 °C 22,8 °C 45 % 1021,7 hPa 0,0 mm 16,5 km/h O-NO 74 ° 10 min 189 W/m² 1,5 °C 13,2 °C 25,3 km/h
04.04.2020 18:10 13,5 °C 23,3 °C 46 % 1021,7 hPa 0,0 mm 16,3 km/h O-NO 69 ° 10 min 225 W/m² 2,1 °C 13,5 °C 27,6 km/h
04.04.2020 18:00 13,6 °C 23,9 °C 46 % 1021,7 hPa 0,0 mm 13,2 km/h N 360 ° 10 min 280 W/m² 2,2 °C 13,6 °C 20,7 km/h
04.04.2020 17:50 13,4 °C 25,0 °C 46 % 1021,7 hPa 0,0 mm 12,6 km/h N 360 ° 10 min 203 W/m² 2,0 °C 13,4 °C 23,0 km/h
04.04.2020 17:40 13,8 °C 25,6 °C 46 % 1021,8 hPa 0,0 mm 11,4 km/h N 360 ° 0 min 129 W/m² 2,4 °C 13,8 °C 20,7 km/h
04.04.2020 17:30 14,8 °C 28,3 °C 42 % 1021,7 hPa 0,0 mm 13,5 km/h N 360 ° 10 min 316 W/m² 2,0 °C 14,8 °C 23,0 km/h
04.04.2020 17:20 15,6 °C 30,0 °C 41 % 1021,7 hPa 0,0 mm 13,9 km/h N 360 ° 10 min 424 W/m² 2,4 °C 15,6 °C 25,3 km/h
04.04.2020 17:10 16,3 °C 29,4 °C 41 % 1021,6 hPa 0,0 mm 14,4 km/h N 360 ° 10 min 493 W/m² 3,0 °C 16,3 °C 29,9 km/h
04.04.2020 17:00 16,1 °C 29,4 °C 38 % 1021,7 hPa 0,0 mm 5,3 km/h NO 49 ° 10 min 520 W/m² 1,8 °C 16,1 °C 11,5 km/h
04.04.2020 16:50 15,6 °C 33,3 °C 39 % 1021,7 hPa 0,0 mm 7,0 km/h N 5 ° 10 min 503 W/m² 1,7 °C 15,6 °C 23,0 km/h
04.04.2020 16:40 15,6 °C 34,4 °C 37 % 1021,8 hPa 0,0 mm 2,6 km/h N 360 ° 10 min 479 W/m² 1,0 °C 15,6 °C 9,2 km/h
04.04.2020 16:30 15,2 °C 35,0 °C 39 % 1021,8 hPa 0,0 mm 7,9 km/h N 360 ° 10 min 508 W/m² 1,3 °C 15,2 °C 20,7 km/h
04.04.2020 16:20 15,0 °C 36,1 °C 41 % 1021,8 hPa 0,0 mm 9,9 km/h N 360 ° 10 min 571 W/m² 1,9 °C 15,0 °C 20,7 km/h
04.04.2020 16:10 14,4 °C 38,9 °C 45 % 1021,9 hPa 0,0 mm 8,6 km/h N 360 ° 10 min 659 W/m² 2,6 °C 14,4 °C 18,4 km/h
04.04.2020 16:00 13,5 °C 28,9 °C 45 % 1021,9 hPa 0,0 mm 9,2 km/h N 360 ° 10 min 338 W/m² 1,8 °C 13,5 °C 18,4 km/h
04.04.2020 15:50 13,2 °C 27,2 °C 48 % 1021,9 hPa 0,0 mm 7,4 km/h N 360 ° 0 min 308 W/m² 2,4 °C 13,2 °C 16,1 km/h
04.04.2020 15:40 13,0 °C 26,7 °C 47 % 1021,9 hPa 0,0 mm 11,7 km/h O 82 ° 0 min 270 W/m² 2,0 °C 13,0 °C 20,7 km/h
04.04.2020 15:30 13,0 °C 26,1 °C 49 % 1021,9 hPa 0,0 mm 10,4 km/h N 360 ° 0 min 232 W/m² 2,5 °C 13,0 °C 23,0 km/h
04.04.2020 15:20 13,1 °C 25,6 °C 51 % 1022,0 hPa 0,0 mm 9,3 km/h N 360 ° 0 min 206 W/m² 3,2 °C 13,1 °C 18,4 km/h
04.04.2020 15:10 13,1 °C 26,1 °C 50 % 1021,9 hPa 0,0 mm 7,2 km/h N 360 ° 0 min 194 W/m² 2,9 °C 13,1 °C 11,5 km/h
04.04.2020 15:00 13,0 °C 26,7 °C 47 % 1022,0 hPa 0,0 mm 4,5 km/h N 360 ° 0 min 182 W/m² 2,0 °C 13,0 °C 9,2 km/h
04.04.2020 14:50 13,0 °C 27,8 °C 46 % 1021,9 hPa 0,0 mm 6,1 km/h NO 54 ° 0 min 174 W/m² 1,7 °C 13,0 °C 13,8 km/h
04.04.2020 14:40 13,3 °C 30,0 °C 46 % 1021,9 hPa 0,0 mm 8,2 km/h N 360 ° 0 min 187 W/m² 1,9 °C 13,3 °C 13,8 km/h
04.04.2020 14:30 13,9 °C 33,3 °C 46 % 1021,9 hPa 0,0 mm 10,5 km/h N 360 ° 0 min 219 W/m² 2,5 °C 13,9 °C 20,7 km/h
04.04.2020 14:20 14,7 °C 39,4 °C 41 % 1021,9 hPa 0,0 mm 7,7 km/h N 360 ° 0 min 353 W/m² 1,6 °C 14,7 °C 23,0 km/h
04.04.2020 14:10 14,8 °C 52,2 °C 48 % 1021,8 hPa 0,4 mm 6,6 km/h NO 45 ° 10 min 911 W/m² 3,9 °C 14,8 °C 16,1 km/h
04.04.2020 14:00 13,9 °C 48,3 °C 44 % 1021,9 hPa 0,0 mm 3,5 km/h N 360 ° 10 min 684 W/m² 1,9 °C 13,9 °C 6,9 km/h
04.04.2020 13:50 13,4 °C 42,8 °C 46 % 1021,9 hPa 0,0 mm 3,4 km/h S 184 ° 10 min 551 W/m² 2,0 °C 13,4 °C 9,2 km/h
04.04.2020 13:40 13,3 °C 38,9 °C 48 % 1021,9 hPa 0,0 mm 4,0 km/h S-SW 200 ° 10 min 479 W/m² 2,5 °C 13,3 °C 11,5 km/h
04.04.2020 13:30 13,4 °C 44,4 °C 45 % 1022,0 hPa 0,0 mm 5,0 km/h S-SW 195 ° 10 min 621 W/m² 1,7 °C 13,4 °C 13,8 km/h
04.04.2020 13:20 13,7 °C 37,8 °C 46 % 1022,0 hPa 0,0 mm 6,2 km/h NO 44 ° 10 min 596 W/m² 2,3 °C 13,7 °C 16,1 km/h
04.04.2020 13:10 13,6 °C 37,8 °C 49 % 1022,1 hPa 0,0 mm 8,8 km/h O 101 ° 0 min 395 W/m² 3,1 °C 13,6 °C 16,1 km/h
04.04.2020 13:00 14,0 °C 38,9 °C 52 % 1022,1 hPa 0,0 mm 12,0 km/h O-NO 77 ° 0 min 366 W/m² 4,3 °C 14,0 °C 20,7 km/h
04.04.2020 12:50 14,5 °C 46,1 °C 47 % 1022,2 hPa 0,0 mm 10,5 km/h O-NO 78 ° 10 min 725 W/m² 3,3 °C 14,5 °C 23,0 km/h
04.04.2020 12:40 14,3 °C 52,8 °C 43 % 1022,1 hPa 0,0 mm 4,0 km/h O-SO 113 ° 10 min 967 W/m² 1,9 °C 14,3 °C 11,5 km/h
04.04.2020 12:30 13,7 °C 45,6 °C 48 % 1022,2 hPa 0,0 mm 4,9 km/h N 360 ° 10 min 872 W/m² 2,9 °C 13,7 °C 11,5 km/h
04.04.2020 12:20 12,7 °C 43,9 °C 52 % 1022,2 hPa 0,0 mm 5,6 km/h O-NO 61 ° 10 min 710 W/m² 3,1 °C 12,7 °C 11,5 km/h
04.04.2020 12:10 12,3 °C 32,8 °C 53 % 1022,2 hPa 0,0 mm 4,9 km/h N-NO 23 ° 0 min 301 W/m² 3,0 °C 12,3 °C 11,5 km/h
04.04.2020 12:00 12,4 °C 31,7 °C 53 % 1022,4 hPa 0,0 mm 6,6 km/h N 9 ° 0 min 241 W/m² 3,1 °C 12,4 °C 13,8 km/h
04.04.2020 11:50 12,8 °C 35,0 °C 52 % 1022,3 hPa 0,0 mm 7,2 km/h N 360 ° 0 min 260 W/m² 3,2 °C 12,8 °C 16,1 km/h
04.04.2020 11:40 13,4 °C 41,7 °C 51 % 1022,2 hPa 0,0 mm 7,2 km/h N 360 ° 10 min 563 W/m² 3,5 °C 13,4 °C 20,7 km/h
04.04.2020 11:30 13,8 °C 50,0 °C 51 % 1022,2 hPa 0,0 mm 4,7 km/h N-NO 21 ° 10 min 749 W/m² 3,8 °C 13,8 °C 11,5 km/h
04.04.2020 11:20 13,2 °C 47,8 °C 52 % 1022,2 hPa 0,0 mm 7,0 km/h N 360 ° 10 min 684 W/m² 3,6 °C 13,2 °C 16,1 km/h
04.04.2020 11:10 12,6 °C 45,0 °C 54 % 1022,2 hPa 0,0 mm 3,2 km/h N-NO 20 ° 10 min 645 W/m² 3,5 °C 12,6 °C 9,2 km/h
04.04.2020 11:00 12,1 °C 39,4 °C 61 % 1022,1 hPa 0,0 mm 3,5 km/h W 261 ° 10 min 621 W/m² 4,8 °C 12,1 °C 9,2 km/h
04.04.2020 10:50 11,7 °C 40,6 °C 57 % 1022,1 hPa 0,0 mm 2,2 km/h N 360 ° 10 min 594 W/m² 3,5 °C 11,7 °C 6,9 km/h
04.04.2020 10:40 11,4 °C 38,9 °C 58 % 1022,1 hPa 0,0 mm 5,6 km/h N 360 ° 10 min 573 W/m² 3,4 °C 11,4 °C 11,5 km/h
04.04.2020 10:30 11,2 °C 36,7 °C 60 % 1022,0 hPa 0,0 mm 3,4 km/h N 360 ° 10 min 548 W/m² 3,7 °C 11,2 °C 9,2 km/h
04.04.2020 10:20 10,9 °C 31,1 °C 61 % 1022,0 hPa 0,0 mm 3,9 km/h O-SO 106 ° 10 min 526 W/m² 3,7 °C 10,9 °C 6,9 km/h
04.04.2020 10:10 10,7 °C 18,9 °C 62 % 1022,0 hPa 0,0 mm 3,0 km/h N 360 ° 10 min 497 W/m² 3,7 °C 10,7 °C 9,2 km/h
04.04.2020 10:00 10,3 °C 16,7 °C 64 % 1021,9 hPa 0,0 mm 4,6 km/h N 360 ° 10 min 466 W/m² 3,8 °C 10,3 °C 11,5 km/h
_ Min-Zeit 07:20 07:20 16:40 17:10 - 10:50 - - - - 07:00 06:10 14:00
Minimum _ 2,4 °C 6,1 °C 37 % 1021,6 hPa - 2,2 km/h - - - - -0,2 °C -0,3 °C 6,9 km/h
_ Max-Zeit 17:10 12:40 07:50 01:30 14:10 21:40 - - 09:30 12:40 11:00 17:10 09:30
Maximum _ 16,3 °C 52,8 °C 84 % 1024,2 hPa 0,4 mm 25,9 km/h
N
- - 10 min 967 W/m² 4,8 °C 16,3 °C 46,0 km/h
O
Durchschnitt _ 8,7 °C 18,5 °C 62 % 1022,9 hPa #0,4 mm 9,6 km/h N - #30 min. 32 W/m² 1,6 °C 7,5 °C 21,1 km/h